createdAt,value
2022-12-23T00:00:19.140Z,144.57
2022-12-23T00:02:47.845Z,142.27
2022-12-23T00:05:16.185Z,145.55
2022-12-23T00:07:46.638Z,159.50
2022-12-23T00:10:17.076Z,142.93
2022-12-23T00:13:03.046Z,154.82
2022-12-23T00:15:31.447Z,177.00
2022-12-23T00:18:00.518Z,157.02
2022-12-23T00:20:29.355Z,141.82
2022-12-23T00:23:07.076Z,145.57
2022-12-23T00:25:44.915Z,142.93
2022-12-23T00:28:14.743Z,151.75
2022-12-23T00:30:47.435Z,175.75
2022-12-23T00:33:16.583Z,156.95
2022-12-23T00:35:45.229Z,163.90
2022-12-23T00:38:14.092Z,173.02
2022-12-23T00:41:01.065Z,163.80
2022-12-23T00:43:29.552Z,155.10
2022-12-23T00:45:57.849Z,157.38
2022-12-23T00:48:46.043Z,150.93
2022-12-23T00:51:15.151Z,152.32
2022-12-23T00:53:46.282Z,159.57
2022-12-23T00:56:16.090Z,167.35
2022-12-23T00:58:44.599Z,172.38
2022-12-23T01:01:30.411Z,162.38
2022-12-23T01:04:15.956Z,161.13
2022-12-23T01:06:44.538Z,157.95
2022-12-23T01:09:13.091Z,172.88
2022-12-23T01:11:43.389Z,183.20
2022-12-23T01:14:11.651Z,174.88
2022-12-23T01:16:40.155Z,177.50
2022-12-23T01:19:09.122Z,184.65
2022-12-23T01:21:37.734Z,204.70
2022-12-23T01:24:06.387Z,175.15
2022-12-23T01:26:34.882Z,179.80
2022-12-23T01:29:05.326Z,189.70
2022-12-23T01:31:34.213Z,178.15
2022-12-23T01:34:02.983Z,181.98
2022-12-23T01:36:31.411Z,205.45
2022-12-23T01:38:59.692Z,185.77
2022-12-23T01:41:46.801Z,175.88
2022-12-23T01:44:34.598Z,208.50
2022-12-23T01:47:04.848Z,188.25
2022-12-23T01:49:33.549Z,187.70
2022-12-23T01:52:02.045Z,171.65
2022-12-23T01:54:30.801Z,166.00
2022-12-23T01:56:59.394Z,198.73
2022-12-23T01:59:45.952Z,158.35
2022-12-23T02:02:33.249Z,176.27
2022-12-23T02:05:01.940Z,173.20
2022-12-23T02:07:47.982Z,207.02
2022-12-23T02:10:18.269Z,207.88
2022-12-23T02:12:48.838Z,180.95
2022-12-23T02:15:49.083Z,175.55
2022-12-23T02:18:35.031Z,175.68
2022-12-23T02:21:13.032Z,173.57
2022-12-23T02:23:56.407Z,193.85
2022-12-23T02:26:49.096Z,167.73
2022-12-23T02:29:33.719Z,179.85
2022-12-23T02:32:07.363Z,186.52
2022-12-23T02:34:40.321Z,180.52
2022-12-23T02:37:12.334Z,168.55
2022-12-23T02:39:46.668Z,175.95
2022-12-23T02:42:17.431Z,160.90
2022-12-23T02:44:50.015Z,167.68
2022-12-23T02:47:21.225Z,170.70
2022-12-23T02:49:52.089Z,166.63
2022-12-23T02:52:22.114Z,162.18
2022-12-23T02:54:53.603Z,188.98
2022-12-23T02:57:24.482Z,169.65
2022-12-23T02:59:53.277Z,162.00
2022-12-23T03:02:23.862Z,174.27
2022-12-23T03:04:52.701Z,170.10
2022-12-23T03:07:24.887Z,162.85
2022-12-23T03:09:59.348Z,174.23
2022-12-23T03:12:34.384Z,186.25
2022-12-23T03:15:10.981Z,177.20
2022-12-23T03:17:49.638Z,157.63
2022-12-23T03:20:22.602Z,164.35
2022-12-23T03:22:56.499Z,165.80
2022-12-23T03:25:26.672Z,163.05
2022-12-23T03:27:59.482Z,174.00
2022-12-23T03:30:29.435Z,161.50
2022-12-23T03:33:03.287Z,160.85
2022-12-23T03:35:32.928Z,165.38
2022-12-23T03:38:02.731Z,148.35
2022-12-23T03:40:34.396Z,177.15
2022-12-23T03:43:05.181Z,172.60
2022-12-23T03:45:40.876Z,181.48
2022-12-23T03:48:15.377Z,173.43
2022-12-23T03:50:44.760Z,151.27
2022-12-23T03:53:15.887Z,184.70
2022-12-23T03:55:47.195Z,185.60
2022-12-23T03:58:19.533Z,169.38
2022-12-23T04:00:55.867Z,183.13
2022-12-23T04:03:29.728Z,172.07
2022-12-23T04:06:00.771Z,162.07
2022-12-23T04:08:31.837Z,173.73
2022-12-23T04:11:00.877Z,168.90
2022-12-23T04:13:29.891Z,187.05
2022-12-23T04:15:59.033Z,205.98
2022-12-23T04:18:29.427Z,187.07
2022-12-23T04:20:57.575Z,181.40
2022-12-23T04:23:25.793Z,185.95
2022-12-23T04:25:54.288Z,165.38
2022-12-23T04:28:23.230Z,166.30
2022-12-23T04:30:51.554Z,186.80
2022-12-23T04:33:20.124Z,180.68
2022-12-23T04:35:50.123Z,148.38
2022-12-23T04:38:18.684Z,155.65
2022-12-23T04:40:47.409Z,162.82
2022-12-23T04:43:15.838Z,161.65
2022-12-23T04:45:43.902Z,161.77
2022-12-23T04:48:12.015Z,192.35
2022-12-23T04:50:41.183Z,144.73
2022-12-23T04:53:11.262Z,164.85
2022-12-23T04:55:39.881Z,170.52
2022-12-23T04:58:11.761Z,147.85
2022-12-23T05:00:40.358Z,153.98
2022-12-23T05:03:09.286Z,163.63
2022-12-23T05:05:38.007Z,145.13
2022-12-23T05:08:07.682Z,146.07
2022-12-23T05:10:37.811Z,156.52
2022-12-23T05:13:06.303Z,148.43
2022-12-23T05:15:34.854Z,150.18
2022-12-23T05:18:03.377Z,152.90
2022-12-23T05:20:32.580Z,164.02
2022-12-23T05:23:01.443Z,173.70
2022-12-23T05:25:30.051Z,142.95
2022-12-23T05:28:00.445Z,139.02
2022-12-23T05:30:29.855Z,143.82
2022-12-23T05:32:58.876Z,142.80
2022-12-23T05:35:28.546Z,159.30
2022-12-23T05:37:57.815Z,147.52
2022-12-23T05:40:29.376Z,152.32
2022-12-23T05:43:01.721Z,145.32
2022-12-23T05:45:30.419Z,159.55
2022-12-23T05:47:58.989Z,141.05
2022-12-23T05:50:27.718Z,141.30
2022-12-23T05:52:56.215Z,155.18
2022-12-23T05:55:24.559Z,142.85
2022-12-23T05:57:53.511Z,156.90
2022-12-23T06:00:23.374Z,173.05
2022-12-23T06:02:53.819Z,154.52
2022-12-23T06:05:22.896Z,153.27
2022-12-23T06:07:51.525Z,154.07
2022-12-23T06:10:20.317Z,142.10
2022-12-23T06:12:48.991Z,160.43
2022-12-23T06:15:17.479Z,154.55
2022-12-23T06:17:48.513Z,153.00
2022-12-23T06:20:20.737Z,149.00
2022-12-23T06:22:49.341Z,133.55
2022-12-23T06:25:18.038Z,147.57
2022-12-23T06:27:46.330Z,146.82
2022-12-23T06:30:18.396Z,146.45
2022-12-23T06:32:49.023Z,132.02
2022-12-23T06:35:20.282Z,152.57
2022-12-23T06:37:48.817Z,153.35
2022-12-23T06:40:18.288Z,149.93
2022-12-23T06:42:46.611Z,167.63
2022-12-23T06:45:14.642Z,168.25
2022-12-23T06:47:43.251Z,161.23
2022-12-23T06:50:15.077Z,174.50
2022-12-23T06:52:44.684Z,177.63
2022-12-23T06:55:13.555Z,148.57
2022-12-23T06:57:42.353Z,187.88
2022-12-23T07:00:13.773Z,149.95
2022-12-23T07:02:42.581Z,155.40
2022-12-23T07:05:11.397Z,162.80
2022-12-23T07:07:41.854Z,166.93
2022-12-23T07:10:10.774Z,169.95
2022-12-23T07:12:39.633Z,182.23
2022-12-23T07:15:08.444Z,178.13
2022-12-23T07:17:37.015Z,179.50
2022-12-23T07:20:06.668Z,182.82
2022-12-23T07:22:36.499Z,179.50
2022-12-23T07:25:20.903Z,180.60
2022-12-23T07:27:49.753Z,176.38
2022-12-23T07:30:21.320Z,175.85
2022-12-23T07:32:50.747Z,165.40
2022-12-23T07:35:22.500Z,176.85
2022-12-23T07:37:52.892Z,193.07
2022-12-23T07:40:22.855Z,178.57
2022-12-23T07:42:57.345Z,178.88
2022-12-23T07:45:26.355Z,185.63
2022-12-23T07:47:55.048Z,188.05
2022-12-23T07:50:29.835Z,175.63
2022-12-23T07:52:59.895Z,158.57
2022-12-23T07:55:30.316Z,183.15
2022-12-23T07:57:59.105Z,186.70
2022-12-23T08:00:28.593Z,177.80
2022-12-23T08:02:57.366Z,178.02
2022-12-23T08:05:26.154Z,170.05
2022-12-23T08:07:55.252Z,237.07
2022-12-23T08:10:23.901Z,196.38
2022-12-23T08:12:54.586Z,172.38
2022-12-23T08:15:23.085Z,184.70
2022-12-23T08:17:51.618Z,180.57
2022-12-23T08:20:20.747Z,258.13
2022-12-23T08:22:48.924Z,186.23
2022-12-23T08:25:17.751Z,223.88
2022-12-23T08:27:46.056Z,196.45
2022-12-23T08:30:22.005Z,201.10
2022-12-23T08:32:50.553Z,184.30
2022-12-23T08:35:19.218Z,184.38
2022-12-23T08:37:48.301Z,194.55
2022-12-23T08:40:19.388Z,166.77
2022-12-23T08:42:50.136Z,201.00
2022-12-23T08:45:18.527Z,170.30
2022-12-23T08:47:51.290Z,261.92
2022-12-23T08:50:20.845Z,183.25
2022-12-23T08:52:48.953Z,192.88
2022-12-23T08:55:17.302Z,157.93
2022-12-23T08:57:46.102Z,226.02
2022-12-23T09:00:15.075Z,152.80
2022-12-23T09:02:44.069Z,199.23
2022-12-23T09:05:14.291Z,158.45
2022-12-23T09:07:43.393Z,178.07
2022-12-23T09:10:12.861Z,150.23
2022-12-23T09:12:44.825Z,219.77
2022-12-23T09:15:13.722Z,142.23
2022-12-23T09:17:42.324Z,141.13
2022-12-23T09:20:11.588Z,139.13
2022-12-23T09:22:41.786Z,132.88
2022-12-23T09:25:14.304Z,125.78
2022-12-23T09:27:42.623Z,116.10
2022-12-23T09:30:12.756Z,137.40
2022-12-23T09:32:42.891Z,115.25
2022-12-23T09:35:11.265Z,121.05
2022-12-23T09:37:40.000Z,99.47
2022-12-23T09:40:12.949Z,109.82
2022-12-23T09:42:47.493Z,101.00
2022-12-23T09:45:21.487Z,96.47
2022-12-23T09:47:50.711Z,106.72
2022-12-23T09:50:23.325Z,96.35
2022-12-23T09:52:55.893Z,95.18
2022-12-23T09:55:28.641Z,99.20
2022-12-23T09:58:01.125Z,94.70
2022-12-23T10:00:34.928Z,90.22
2022-12-23T10:03:15.189Z,97.28
2022-12-23T10:05:48.401Z,87.75
2022-12-23T10:08:19.557Z,94.63
2022-12-23T10:10:51.323Z,80.35
2022-12-23T10:13:26.131Z,71.40
2022-12-23T10:15:55.278Z,79.38
2022-12-23T10:18:26.766Z,78.00
2022-12-23T10:20:59.970Z,72.30
2022-12-23T10:23:30.097Z,68.25
2022-12-23T10:26:00.073Z,72.15
2022-12-23T10:28:29.846Z,76.03
2022-12-23T10:31:38.833Z,77.85
2022-12-23T10:33:56.129Z,84.82
2022-12-23T10:36:29.565Z,80.95
2022-12-23T10:39:02.109Z,77.90
2022-12-23T10:41:37.966Z,78.90
2022-12-23T10:44:33.446Z,75.03
2022-12-23T10:47:05.592Z,79.20
2022-12-23T10:49:38.926Z,74.93
2022-12-23T10:52:11.237Z,92.15
2022-12-23T10:54:40.315Z,80.03
2022-12-23T10:57:13.943Z,94.82
2022-12-23T10:59:44.691Z,88.90
2022-12-23T11:02:26.561Z,105.03
2022-12-23T11:04:55.146Z,85.53
2022-12-23T11:07:43.868Z,82.35
2022-12-23T11:10:18.726Z,82.07
2022-12-23T11:12:49.546Z,140.55
2022-12-23T11:15:29.085Z,94.57
2022-12-23T11:18:05.174Z,93.72
2022-12-23T11:20:34.956Z,137.07
2022-12-23T11:23:04.208Z,112.50
2022-12-23T11:25:34.782Z,153.15
2022-12-23T11:28:06.368Z,160.65
2022-12-23T11:30:37.575Z,85.20
2022-12-23T11:33:18.820Z,104.00
2022-12-23T11:35:47.495Z,150.52
2022-12-23T11:38:16.280Z,140.95
2022-12-23T11:40:48.116Z,185.30
2022-12-23T11:43:19.009Z,142.13
2022-12-23T11:45:47.682Z,119.47
2022-12-23T11:48:28.550Z,178.57
2022-12-23T11:50:59.684Z,251.65
2022-12-23T11:53:28.193Z,108.18
2022-12-23T11:56:01.579Z,244.15
2022-12-23T11:58:32.788Z,144.52
2022-12-23T12:01:02.114Z,236.52
2022-12-23T12:03:32.855Z,306.05
2022-12-23T12:06:03.951Z,283.77
2022-12-23T12:08:33.369Z,217.00
2022-12-23T12:11:03.956Z,136.48
2022-12-23T12:13:37.437Z,263.98
2022-12-23T12:16:13.365Z,237.70
2022-12-23T12:18:43.202Z,137.33
2022-12-23T12:21:13.178Z,212.05
2022-12-23T12:23:44.042Z,314.15
2022-12-23T12:26:15.628Z,171.32
2022-12-23T12:28:47.144Z,285.00
2022-12-23T12:31:24.449Z,277.60
2022-12-23T12:33:55.228Z,231.13
2022-12-23T12:36:30.407Z,283.67
2022-12-23T12:39:00.008Z,325.90
2022-12-23T12:41:30.714Z,207.00
2022-12-23T12:44:05.268Z,251.43
2022-12-23T12:46:36.469Z,235.00
2022-12-23T12:49:07.521Z,221.73
2022-12-23T12:51:39.474Z,247.88
2022-12-23T12:54:12.945Z,233.93
2022-12-23T12:56:43.021Z,164.77
2022-12-23T12:59:16.878Z,367.83
2022-12-23T13:01:49.975Z,168.70
2022-12-23T13:04:25.807Z,361.20
2022-12-23T13:06:58.066Z,257.35
2022-12-23T13:09:31.108Z,246.75
2022-12-23T13:12:03.094Z,181.77
2022-12-23T13:14:36.119Z,334.27
2022-12-23T13:17:08.142Z,247.80
2022-12-23T13:19:40.213Z,419.02
2022-12-23T13:22:10.488Z,355.35
2022-12-23T13:24:43.776Z,369.65
2022-12-23T13:27:15.627Z,331.02
2022-12-23T13:30:02.012Z,301.77
2022-12-23T13:35:04.526Z,265.65
2022-12-23T13:37:37.501Z,433.27
2022-12-23T13:40:11.422Z,200.63
2022-12-23T13:42:42.474Z,247.40
2022-12-23T13:45:14.119Z,328.63
2022-12-23T13:47:47.074Z,276.65
2022-12-23T13:50:21.433Z,352.23
2022-12-23T13:53:01.465Z,282.75
2022-12-23T13:55:40.825Z,345.00
2022-12-23T13:58:12.683Z,404.33
2022-12-23T14:00:41.465Z,275.58
2022-12-23T14:03:21.024Z,246.70
2022-12-23T14:05:51.648Z,331.85
2022-12-23T14:08:25.051Z,261.35
2022-12-23T14:10:55.609Z,292.13
2022-12-23T14:17:10.110Z,354.45
2022-12-23T14:19:57.587Z,349.33
2022-12-23T14:22:35.460Z,320.73
2022-12-23T14:25:16.223Z,330.77
2022-12-23T14:27:49.802Z,251.30
2022-12-23T14:30:23.511Z,218.52
2022-12-23T14:32:52.962Z,360.05
2022-12-23T14:35:23.339Z,376.38
2022-12-23T14:38:22.767Z,273.90
2022-12-23T14:41:01.620Z,198.57
2022-12-23T14:43:47.605Z,344.10
2022-12-23T14:46:44.507Z,359.98
2022-12-23T14:49:38.893Z,221.50
2022-12-23T14:52:30.710Z,331.42
2022-12-23T14:55:32.115Z,329.55
2022-12-23T14:58:07.552Z,288.40
2022-12-23T15:00:46.176Z,253.20
2022-12-23T15:03:14.855Z,315.15
2022-12-23T15:05:44.203Z,237.38
2022-12-23T15:08:22.683Z,191.77
2022-12-23T15:10:53.567Z,127.88
2022-12-23T15:13:22.169Z,131.07
2022-12-23T15:16:01.038Z,133.52
2022-12-23T15:18:30.499Z,152.38
2022-12-23T15:21:00.242Z,184.38
2022-12-23T15:23:29.391Z,163.95
2022-12-23T15:25:59.848Z,172.50
2022-12-23T15:28:36.204Z,142.63
2022-12-23T15:31:06.701Z,146.23
2022-12-23T15:34:03.045Z,123.70
2022-12-23T15:36:30.812Z,126.20
2022-12-23T15:39:00.429Z,130.65
2022-12-23T15:41:30.531Z,140.05
2022-12-23T15:44:01.876Z,135.52
2022-12-23T15:46:30.898Z,148.82
2022-12-23T15:48:59.809Z,180.07
2022-12-23T15:54:23.611Z,143.43
2022-12-23T15:56:54.787Z,130.05
2022-12-23T15:59:25.536Z,142.52
2022-12-23T16:14:40.327Z,101.30
2022-12-23T16:17:18.438Z,138.50
2022-12-23T16:19:51.340Z,158.90
2022-12-23T16:22:24.096Z,122.60
2022-12-23T16:25:00.892Z,123.57
2022-12-23T16:27:36.342Z,136.43
2022-12-23T16:30:11.541Z,108.07
2022-12-23T16:32:46.993Z,101.53
2022-12-23T16:35:24.828Z,123.60
2022-12-23T16:37:54.395Z,108.78
2022-12-23T16:40:36.218Z,91.82
2022-12-23T16:43:23.312Z,95.43
2022-12-23T16:46:09.365Z,103.82
2022-12-23T16:48:43.317Z,118.53
2022-12-23T16:51:18.649Z,85.50
2022-12-23T16:53:47.458Z,108.95
2022-12-23T16:56:19.403Z,112.50
2022-12-23T16:58:53.902Z,120.18
2022-12-23T17:01:24.240Z,120.03
2022-12-23T17:04:05.404Z,102.15
2022-12-23T17:07:01.178Z,85.43
2022-12-23T17:09:31.879Z,94.63
2022-12-23T17:12:03.600Z,98.30
2022-12-23T17:14:32.599Z,111.07
2022-12-23T17:17:04.766Z,110.55
2022-12-23T17:19:35.140Z,105.93
2022-12-23T17:22:04.605Z,93.05
2022-12-23T17:24:33.272Z,100.63
2022-12-23T17:27:01.656Z,93.95
2022-12-23T17:29:30.870Z,109.47
2022-12-23T17:32:00.245Z,199.30
2022-12-23T17:34:28.879Z,115.63
2022-12-23T17:37:01.415Z,100.63
2022-12-23T17:39:30.145Z,105.13
2022-12-23T17:42:00.572Z,125.20
2022-12-23T17:44:40.001Z,129.13
2022-12-23T17:47:22.140Z,131.10
2022-12-23T17:49:56.520Z,151.18
2022-12-23T17:52:34.464Z,118.28
2022-12-23T17:55:04.532Z,131.82
2022-12-23T17:57:37.629Z,169.65
2022-12-23T18:00:25.105Z,146.32
2022-12-23T18:02:58.825Z,109.18
2022-12-23T18:05:30.135Z,125.80
2022-12-23T18:08:01.347Z,163.90
2022-12-23T18:10:31.188Z,155.25
2022-12-23T18:13:01.110Z,124.88
2022-12-23T18:15:32.910Z,127.88
2022-12-23T18:18:01.619Z,133.57
2022-12-23T18:20:34.016Z,157.00
2022-12-23T18:23:05.168Z,141.07
2022-12-23T18:25:33.988Z,165.65
2022-12-23T18:28:02.515Z,110.60
2022-12-23T18:30:32.176Z,84.50
2022-12-23T18:33:03.070Z,102.35
2022-12-23T18:35:32.547Z,82.78
2022-12-23T18:38:01.263Z,111.88
2022-12-23T18:40:33.224Z,99.55
2022-12-23T18:43:02.329Z,83.97
2022-12-23T18:45:33.721Z,89.72
2022-12-23T18:48:02.634Z,104.13
2022-12-23T18:50:32.375Z,122.10
2022-12-23T18:53:00.984Z,111.53
2022-12-23T18:55:30.375Z,115.38
2022-12-23T18:58:00.819Z,92.85
2022-12-23T19:00:29.964Z,87.55
2022-12-23T19:02:58.788Z,95.82
2022-12-23T19:05:28.512Z,90.70
2022-12-23T19:07:58.674Z,85.40
2022-12-23T19:10:28.419Z,77.35
2022-12-23T19:12:57.766Z,80.53
2022-12-23T19:15:28.195Z,112.80
2022-12-23T19:17:57.240Z,116.53
2022-12-23T19:20:26.625Z,112.95
2022-12-23T19:22:55.378Z,105.15
2022-12-23T19:25:24.145Z,80.97
2022-12-23T19:27:52.277Z,65.40
2022-12-23T19:30:22.416Z,68.78
2022-12-23T19:32:53.424Z,59.13
2022-12-23T19:35:21.844Z,68.20
2022-12-23T19:37:50.895Z,69.47
2022-12-23T19:40:20.118Z,67.05
2022-12-23T19:42:48.453Z,73.85
2022-12-23T19:45:17.282Z,86.28
2022-12-23T19:47:45.904Z,88.20
2022-12-23T19:50:20.120Z,80.93
2022-12-23T19:52:50.165Z,82.72
2022-12-23T19:55:19.121Z,74.38
2022-12-23T19:57:52.421Z,91.65
2022-12-23T20:00:20.715Z,89.35
2022-12-23T20:02:52.506Z,92.13
2022-12-23T20:05:27.393Z,99.15
2022-12-23T20:07:56.044Z,97.03
2022-12-23T20:10:25.181Z,102.88
2022-12-23T20:12:53.885Z,99.40
2022-12-23T20:15:22.353Z,117.22
2022-12-23T20:17:51.429Z,125.50
2022-12-23T20:20:21.058Z,117.32
2022-12-23T20:22:50.849Z,122.65
2022-12-23T20:25:19.587Z,112.45
2022-12-23T20:27:48.265Z,87.80
2022-12-23T20:30:17.199Z,78.18
2022-12-23T20:32:45.830Z,80.35
2022-12-23T20:35:14.583Z,92.55
2022-12-23T20:37:43.490Z,77.15
2022-12-23T20:40:15.696Z,74.05
2022-12-23T20:42:44.449Z,85.15
2022-12-23T20:45:13.571Z,83.47
2022-12-23T20:47:41.868Z,80.95
2022-12-23T20:50:17.075Z,74.32
2022-12-23T20:52:45.620Z,70.13
2022-12-23T20:55:15.801Z,81.82
2022-12-23T20:57:46.226Z,79.43
2022-12-23T21:00:16.611Z,74.60
2022-12-23T21:02:45.207Z,64.25
2022-12-23T21:05:13.726Z,73.60
2022-12-23T21:07:42.393Z,72.90
2022-12-23T21:10:12.753Z,64.45
2022-12-23T21:12:43.658Z,69.05
2022-12-23T21:15:12.024Z,64.97
2022-12-23T21:17:40.518Z,66.63
2022-12-23T21:20:13.824Z,74.25
2022-12-23T21:22:42.587Z,62.90
2022-12-23T21:25:11.410Z,76.15
2022-12-23T21:27:41.805Z,95.25
2022-12-23T21:30:15.791Z,88.60
2022-12-23T21:32:44.004Z,111.40
2022-12-23T21:35:12.869Z,82.10
2022-12-23T21:37:41.971Z,75.55
2022-12-23T21:40:14.850Z,81.28
2022-12-23T21:42:43.312Z,116.10
2022-12-23T21:45:12.201Z,99.82
2022-12-23T21:47:43.647Z,82.55
2022-12-23T21:50:16.340Z,86.45
2022-12-23T21:52:47.642Z,73.57
2022-12-23T21:55:18.271Z,69.40
2022-12-23T21:57:46.912Z,74.97
2022-12-23T22:00:15.796Z,104.10
2022-12-23T22:02:46.494Z,89.20
2022-12-23T22:05:15.352Z,86.57
2022-12-23T22:07:44.091Z,75.78
2022-12-23T22:10:17.829Z,96.00
2022-12-23T22:12:46.923Z,84.70
2022-12-23T22:15:15.287Z,79.38
2022-12-23T22:17:44.012Z,72.72
2022-12-23T22:20:17.056Z,77.13
2022-12-23T22:22:45.797Z,71.30
2022-12-23T22:25:14.385Z,87.10
2022-12-23T22:27:43.360Z,83.20
2022-12-23T22:30:12.649Z,81.95
2022-12-23T22:32:42.699Z,89.82
2022-12-23T22:35:14.439Z,81.35
2022-12-23T22:37:45.354Z,75.00
2022-12-23T22:40:14.447Z,76.38
2022-12-23T22:42:44.575Z,72.05
2022-12-23T22:45:13.869Z,69.28
2022-12-23T22:47:42.683Z,85.10
2022-12-23T22:50:12.644Z,96.43
2022-12-23T22:52:45.150Z,83.75
2022-12-23T22:55:13.729Z,82.03
2022-12-23T22:57:42.083Z,89.93
2022-12-23T23:00:12.892Z,89.97
2022-12-23T23:02:43.068Z,93.65
2022-12-23T23:05:13.191Z,89.65
2022-12-23T23:07:41.578Z,90.63
2022-12-23T23:10:13.356Z,72.25
2022-12-23T23:12:44.169Z,81.65
2022-12-23T23:15:12.875Z,66.65
2022-12-23T23:17:41.039Z,68.63
2022-12-23T23:20:10.145Z,58.50
2022-12-23T23:22:40.808Z,59.33
2022-12-23T23:25:10.201Z,58.47
2022-12-23T23:27:40.495Z,51.90
2022-12-23T23:30:10.020Z,63.10
2022-12-23T23:32:38.730Z,59.25
2022-12-23T23:35:10.921Z,64.97
2022-12-23T23:37:39.405Z,65.25
2022-12-23T23:40:08.841Z,69.10
2022-12-23T23:42:37.656Z,77.72
2022-12-23T23:45:08.402Z,73.85
2022-12-23T23:47:36.993Z,89.18
2022-12-23T23:50:09.795Z,82.28
2022-12-23T23:52:38.347Z,90.05
2022-12-23T23:55:07.040Z,79.32
2022-12-23T23:57:35.967Z,96.45
